createdAt,value
2018-12-21T00:01:46.080Z,77.64
2018-12-21T00:04:14.961Z,78.05
2018-12-21T00:06:43.841Z,77.33
2018-12-21T00:09:12.733Z,78.54
2018-12-21T00:11:41.652Z,77.74
2018-12-21T00:14:10.612Z,77.41
2018-12-21T00:16:39.512Z,77.63
2018-12-21T00:19:08.406Z,77.02
2018-12-21T00:21:37.384Z,76.66
2018-12-21T00:24:06.282Z,77.18
2018-12-21T00:26:35.169Z,77.30
2018-12-21T00:29:04.052Z,77.65
2018-12-21T00:31:38.288Z,77.09
2018-12-21T00:34:12.741Z,77.06
2018-12-21T00:36:46.972Z,77.89
2018-12-21T00:39:21.156Z,77.60
2018-12-21T00:41:49.456Z,77.72
2018-12-21T00:44:28.531Z,77.37
2018-12-21T00:47:01.528Z,77.54
2018-12-21T00:49:30.422Z,78.04
2018-12-21T00:51:59.304Z,76.96
2018-12-21T00:54:28.211Z,77.62
2018-12-21T00:56:57.078Z,77.71
2018-12-21T00:59:25.976Z,76.77
2018-12-21T01:01:54.976Z,76.83
2018-12-21T01:04:23.861Z,76.36
2018-12-21T01:06:52.760Z,76.90
2018-12-21T01:09:21.741Z,76.42
2018-12-21T01:11:50.609Z,76.47
2018-12-21T01:14:19.623Z,76.74
2018-12-21T01:16:48.531Z,77.33
2018-12-21T01:19:17.379Z,76.83
2018-12-21T01:21:47.018Z,76.23
2018-12-21T01:24:15.892Z,76.39
2018-12-21T01:26:44.997Z,75.80
2018-12-21T01:29:13.876Z,75.67
2018-12-21T01:31:42.712Z,76.69
2018-12-21T01:34:11.661Z,75.53
2018-12-21T01:36:40.488Z,75.80
2018-12-21T01:39:09.411Z,76.29
2018-12-21T01:41:38.232Z,76.32
2018-12-21T01:44:07.141Z,75.97
2018-12-21T01:46:36.033Z,76.46
2018-12-21T01:49:04.925Z,76.34
2018-12-21T01:51:33.810Z,75.94
2018-12-21T01:54:02.677Z,76.32
2018-12-21T01:56:31.498Z,75.52
2018-12-21T01:59:00.487Z,76.14
2018-12-21T02:01:29.309Z,76.05
2018-12-21T02:03:58.165Z,76.16
2018-12-21T02:06:27.041Z,75.61
2018-12-21T02:08:55.941Z,75.83
2018-12-21T02:11:24.837Z,75.26
2018-12-21T02:13:53.815Z,75.79
2018-12-21T02:16:22.692Z,75.98
2018-12-21T02:18:51.587Z,75.23
2018-12-21T02:21:20.400Z,75.50
2018-12-21T02:23:49.252Z,75.81
2018-12-21T02:26:18.185Z,75.64
2018-12-21T02:28:47.076Z,75.16
2018-12-21T02:31:15.992Z,74.36
2018-12-21T02:33:44.932Z,75.00
2018-12-21T02:36:13.996Z,75.16
2018-12-21T02:38:43.082Z,75.52
2018-12-21T02:41:12.013Z,74.86
2018-12-21T02:43:40.830Z,74.50
2018-12-21T02:46:09.645Z,74.69
2018-12-21T02:48:38.492Z,75.51
2018-12-21T02:51:08.391Z,74.77
2018-12-21T02:53:37.192Z,75.52
2018-12-21T02:56:06.181Z,74.90
2018-12-21T02:58:35.096Z,75.30
2018-12-21T03:01:03.906Z,75.60
2018-12-21T03:03:32.844Z,75.55
2018-12-21T03:06:01.748Z,75.67
2018-12-21T03:08:30.634Z,75.74
2018-12-21T03:10:59.504Z,75.35
2018-12-21T03:13:28.412Z,75.57
2018-12-21T03:15:57.291Z,75.64
2018-12-21T03:18:26.608Z,76.05
2018-12-21T03:20:55.492Z,75.82
2018-12-21T03:23:24.396Z,76.11
2018-12-21T03:25:53.264Z,76.30
2018-12-21T03:28:25.185Z,76.69
2018-12-21T03:30:54.018Z,76.23
2018-12-21T03:33:23.022Z,77.20
2018-12-21T03:35:51.833Z,77.26
2018-12-21T03:38:21.058Z,77.15
2018-12-21T03:40:50.509Z,77.48
2018-12-21T03:43:19.417Z,76.66
2018-12-21T03:45:48.230Z,76.97
2018-12-21T03:48:17.141Z,76.74
2018-12-21T03:50:45.956Z,77.00
2018-12-21T03:53:14.833Z,77.26
2018-12-21T03:55:43.737Z,76.59
2018-12-21T03:58:12.642Z,76.83
2018-12-21T04:00:41.520Z,76.93
2018-12-21T04:03:10.400Z,77.16
2018-12-21T04:05:40.221Z,77.10
2018-12-21T04:08:09.081Z,77.52
2018-12-21T04:10:38.012Z,77.79
2018-12-21T04:13:06.892Z,76.65
2018-12-21T04:15:35.901Z,76.65
2018-12-21T04:18:04.774Z,76.79
2018-12-21T04:20:33.669Z,77.20
2018-12-21T04:23:02.557Z,78.11
2018-12-21T04:25:31.486Z,79.09
2018-12-21T04:28:00.433Z,79.13
2018-12-21T04:30:29.337Z,80.56
2018-12-21T04:32:58.160Z,80.46
2018-12-21T04:35:27.125Z,79.96
2018-12-21T04:37:55.969Z,80.38
2018-12-21T04:40:24.892Z,80.21
2018-12-21T04:42:53.697Z,80.51
2018-12-21T04:45:22.678Z,79.62
2018-12-21T04:47:51.559Z,79.97
2018-12-21T04:50:20.453Z,79.77
2018-12-21T04:52:49.294Z,80.74
2018-12-21T04:55:18.237Z,82.05
2018-12-21T04:57:47.176Z,81.75
2018-12-21T05:00:16.121Z,82.57
2018-12-21T05:02:45.250Z,83.06
2018-12-21T05:05:14.333Z,83.78
2018-12-21T05:07:43.201Z,84.18
2018-12-21T05:10:12.092Z,85.41
2018-12-21T05:12:41.110Z,85.45
2018-12-21T05:15:10.200Z,85.65
2018-12-21T05:17:40.216Z,85.23
2018-12-21T05:20:09.282Z,86.02
2018-12-21T05:22:38.225Z,86.06
2018-12-21T05:25:07.332Z,85.99
2018-12-21T05:27:36.156Z,87.11
2018-12-21T05:30:05.786Z,87.08
2018-12-21T05:32:35.269Z,88.06
2018-12-21T05:35:04.446Z,87.20
2018-12-21T05:37:34.377Z,88.51
2018-12-21T05:40:03.392Z,88.83
2018-12-21T05:42:32.244Z,87.87
2018-12-21T05:45:01.284Z,88.37
2018-12-21T05:47:31.308Z,88.51
2018-12-21T05:50:00.555Z,88.31
2018-12-21T05:52:29.512Z,88.53
2018-12-21T05:54:58.361Z,87.90
2018-12-21T05:57:27.208Z,88.54
2018-12-21T05:59:56.881Z,87.78
2018-12-21T06:02:25.777Z,88.29
2018-12-21T06:04:54.632Z,88.01
2018-12-21T06:07:24.813Z,88.79
2018-12-21T06:09:53.824Z,88.73
2018-12-21T06:12:22.644Z,88.63
2018-12-21T06:14:51.505Z,89.07
2018-12-21T06:17:20.332Z,89.38
2018-12-21T06:19:49.237Z,89.18
2018-12-21T06:22:18.137Z,89.22
2018-12-21T06:24:46.974Z,89.53
2018-12-21T06:27:16.790Z,88.46
2018-12-21T06:29:45.608Z,88.71
2018-12-21T06:32:14.550Z,88.98
2018-12-21T06:34:43.438Z,88.66
2018-12-21T06:37:13.317Z,88.49
2018-12-21T06:39:42.176Z,88.80
2018-12-21T06:42:11.069Z,89.47
2018-12-21T06:44:40.476Z,89.32
2018-12-21T06:47:09.632Z,89.79
2018-12-21T06:49:38.570Z,89.16
2018-12-21T06:52:07.449Z,89.05
2018-12-21T06:54:36.306Z,89.61
2018-12-21T06:57:05.593Z,89.07
2018-12-21T06:59:34.545Z,88.86
2018-12-21T07:02:03.478Z,89.51
2018-12-21T07:04:32.335Z,88.85
2018-12-21T07:07:01.144Z,88.93
2018-12-21T07:09:30.008Z,88.45
2018-12-21T07:11:59.589Z,88.73
2018-12-21T07:14:28.609Z,89.12
2018-12-21T07:16:57.498Z,88.93
2018-12-21T07:19:26.800Z,88.52
2018-12-21T07:21:55.695Z,89.19
2018-12-21T07:24:24.700Z,89.20
2018-12-21T07:26:53.578Z,88.76
2018-12-21T07:29:22.548Z,88.58
2018-12-21T07:31:51.506Z,89.30
2018-12-21T07:34:21.472Z,89.10
2018-12-21T07:36:50.380Z,88.92
2018-12-21T07:39:19.243Z,89.59
2018-12-21T07:41:48.237Z,89.40
2018-12-21T07:44:17.686Z,89.06
2018-12-21T07:46:46.653Z,89.99
2018-12-21T07:49:16.600Z,89.01
2018-12-21T07:51:45.535Z,90.09
2018-12-21T07:54:14.503Z,89.90
2018-12-21T07:56:43.313Z,89.25
2018-12-21T07:59:12.193Z,89.64
2018-12-21T08:01:41.612Z,90.53
2018-12-21T08:04:10.479Z,90.41
2018-12-21T08:06:39.357Z,90.34
2018-12-21T08:09:08.496Z,90.47
2018-12-21T08:11:38.053Z,90.29
2018-12-21T08:14:07.027Z,90.59
2018-12-21T08:16:36.064Z,90.66
2018-12-21T08:19:04.876Z,90.54
2018-12-21T08:21:34.170Z,90.77
2018-12-21T08:24:03.057Z,89.95
2018-12-21T08:26:31.945Z,90.19
2018-12-21T08:29:00.811Z,90.87
2018-12-21T08:31:29.686Z,90.83
2018-12-21T08:33:58.596Z,90.60
2018-12-21T08:36:27.447Z,90.99
2018-12-21T08:38:56.330Z,90.96
2018-12-21T08:41:25.188Z,90.56
2018-12-21T08:43:54.180Z,90.20
2018-12-21T08:46:23.064Z,90.31
2018-12-21T08:48:52.914Z,90.57
2018-12-21T08:51:21.880Z,91.06
2018-12-21T08:53:52.662Z,91.38
2018-12-21T08:56:21.748Z,90.86
2018-12-21T08:58:50.589Z,91.06
2018-12-21T09:01:19.507Z,91.47
2018-12-21T09:03:48.345Z,91.51
2018-12-21T09:06:18.573Z,91.72
2018-12-21T09:08:47.753Z,91.12
2018-12-21T09:11:16.581Z,91.61
2018-12-21T09:13:45.489Z,92.39
2018-12-21T09:16:17.739Z,91.88
2018-12-21T09:18:46.625Z,92.53
2018-12-21T09:21:15.466Z,92.35
2018-12-21T09:23:44.288Z,91.71
2018-12-21T09:26:13.189Z,91.88
2018-12-21T09:28:42.257Z,92.12
2018-12-21T09:31:11.891Z,92.24
2018-12-21T09:33:40.705Z,91.77
2018-12-21T09:36:09.683Z,92.49
2018-12-21T09:38:40.306Z,92.01
2018-12-21T09:41:09.324Z,92.67
2018-12-21T09:43:38.960Z,92.39
2018-12-21T09:46:09.129Z,92.36
2018-12-21T09:48:38.128Z,93.46
2018-12-21T09:51:07.214Z,93.53
2018-12-21T09:53:36.200Z,93.46
2018-12-21T09:56:05.058Z,93.21
2018-12-21T09:58:35.268Z,93.25
2018-12-21T10:01:04.256Z,93.08
2018-12-21T10:03:33.212Z,93.26
2018-12-21T10:06:02.027Z,93.69
2018-12-21T10:08:30.979Z,93.45
2018-12-21T10:14:03.864Z,93.93
2018-12-21T10:16:33.078Z,93.77
2018-12-21T10:19:02.207Z,93.55
2018-12-21T10:21:31.249Z,94.02
2018-12-21T10:24:01.459Z,94.39
2018-12-21T10:26:30.889Z,93.73
2018-12-21T10:28:59.862Z,94.49
2018-12-21T10:31:28.920Z,93.62
2018-12-21T10:33:58.724Z,94.35
2018-12-21T10:36:31.913Z,94.04
2018-12-21T10:39:03.853Z,94.28
2018-12-21T10:41:34.157Z,93.76
2018-12-21T10:44:03.098Z,94.47
2018-12-21T10:46:31.914Z,93.71
2018-12-21T10:49:01.412Z,94.64
2018-12-21T10:51:30.653Z,94.10
2018-12-21T10:53:59.467Z,95.28
2018-12-21T10:56:28.813Z,94.76
2018-12-21T10:58:57.755Z,95.46
2018-12-21T11:01:27.345Z,97.19
2018-12-21T11:03:56.981Z,97.12
2018-12-21T11:06:26.311Z,96.60
2018-12-21T11:11:57.360Z,95.93
2018-12-21T11:14:26.427Z,95.20
2018-12-21T11:16:56.164Z,95.31
2018-12-21T11:19:25.025Z,93.49
2018-12-21T11:21:53.976Z,93.17
2018-12-21T11:24:23.017Z,92.93
2018-12-21T11:26:51.880Z,91.67
2018-12-21T11:29:20.895Z,91.78
2018-12-21T11:31:49.887Z,91.72
2018-12-21T11:34:18.758Z,91.08
2018-12-21T11:36:47.762Z,90.65
2018-12-21T11:39:16.669Z,90.28
2018-12-21T11:41:46.544Z,89.87
2018-12-21T11:44:15.407Z,89.65
2018-12-21T11:46:44.329Z,89.82
2018-12-21T11:49:13.245Z,89.96
2018-12-21T11:51:42.065Z,90.02
2018-12-21T11:54:11.005Z,88.93
2018-12-21T11:56:39.900Z,88.54
2018-12-21T11:59:08.974Z,88.79
2018-12-21T12:01:37.951Z,89.29
2018-12-21T12:04:07.054Z,89.04
2018-12-21T12:06:35.882Z,88.11
2018-12-21T12:09:07.404Z,87.95
2018-12-21T12:11:37.500Z,87.96
2018-12-21T12:14:06.554Z,87.84
2018-12-21T12:16:36.536Z,87.51
2018-12-21T12:19:05.519Z,88.41
2018-12-21T12:21:34.513Z,88.42
2018-12-21T12:24:03.488Z,88.47
2018-12-21T12:26:32.363Z,88.27
2018-12-21T12:29:01.660Z,87.50
2018-12-21T12:31:31.472Z,87.90
2018-12-21T12:34:06.017Z,86.90
2018-12-21T12:36:39.217Z,87.60
2018-12-21T12:39:08.465Z,86.43
2018-12-21T12:41:37.568Z,85.05
2018-12-21T12:44:07.302Z,86.08
2018-12-21T12:46:36.508Z,85.24
2018-12-21T12:49:05.535Z,84.55
2018-12-21T12:51:34.714Z,83.85
2018-12-21T12:54:04.653Z,84.55
2018-12-21T12:56:34.154Z,84.53
2018-12-21T12:59:04.710Z,84.63
2018-12-21T13:01:34.145Z,84.47
2018-12-21T13:04:03.688Z,83.56
2018-12-21T13:06:33.228Z,84.43
2018-12-21T13:09:02.204Z,83.55
2018-12-21T13:11:32.637Z,83.50
2018-12-21T13:14:01.522Z,83.11
2018-12-21T13:16:30.411Z,82.30
2018-12-21T13:18:59.251Z,82.12
2018-12-21T13:21:28.233Z,82.21
2018-12-21T13:23:57.180Z,82.88
2018-12-21T13:26:26.063Z,81.54
2018-12-21T13:28:54.973Z,81.57
2018-12-21T13:31:24.497Z,80.65
2018-12-21T13:33:53.477Z,81.20
2018-12-21T13:36:22.353Z,80.99
2018-12-21T13:38:51.348Z,80.02
2018-12-21T13:41:20.226Z,78.77
2018-12-21T13:43:49.101Z,79.16
2018-12-21T13:46:18.137Z,79.04
2018-12-21T13:48:47.129Z,78.50
2018-12-21T13:51:15.981Z,77.55
2018-12-21T13:53:44.917Z,76.17
2018-12-21T13:56:13.828Z,75.58
2018-12-21T13:58:42.697Z,75.68
2018-12-21T14:01:12.312Z,76.10
2018-12-21T14:03:41.273Z,77.17
2018-12-21T14:06:10.311Z,77.91
2018-12-21T14:08:39.148Z,78.08
2018-12-21T14:11:08.658Z,77.83
2018-12-21T14:13:37.642Z,78.31
2018-12-21T14:16:06.687Z,79.11
2018-12-21T14:18:35.536Z,78.65
2018-12-21T14:21:05.228Z,78.58
2018-12-21T14:23:34.761Z,78.59
2018-12-21T14:26:03.801Z,77.45
2018-12-21T14:28:32.781Z,77.99
2018-12-21T14:31:02.797Z,77.38
2018-12-21T14:33:31.758Z,77.47
2018-12-21T14:36:00.581Z,74.97
2018-12-21T14:38:29.400Z,76.42
2018-12-21T14:40:58.358Z,76.73
2018-12-21T14:43:27.261Z,78.70
2018-12-21T14:45:56.353Z,77.98
2018-12-21T14:48:25.454Z,77.81
2018-12-21T14:50:54.919Z,77.62
2018-12-21T14:53:23.900Z,78.01
2018-12-21T14:55:52.764Z,76.33
2018-12-21T14:58:22.185Z,75.01
2018-12-21T15:00:50.996Z,74.32
2018-12-21T15:03:19.969Z,74.39
2018-12-21T15:05:48.781Z,74.62
2018-12-21T15:08:17.736Z,73.67
2018-12-21T15:10:46.557Z,74.44
2018-12-21T15:13:15.407Z,74.54
2018-12-21T15:15:44.310Z,72.51
2018-12-21T15:18:13.281Z,72.46
2018-12-21T15:20:42.180Z,71.92
2018-12-21T15:23:10.982Z,71.34
2018-12-21T15:25:46.013Z,71.41
2018-12-21T15:28:10.797Z,71.19
2018-12-21T15:30:39.675Z,69.45
2018-12-21T15:33:08.483Z,68.83
2018-12-21T15:35:37.372Z,70.00
2018-12-21T15:38:06.203Z,66.49
2018-12-21T15:40:35.150Z,67.40
2018-12-21T15:43:04.197Z,67.65
2018-12-21T15:45:33.041Z,67.39
2018-12-21T15:48:02.029Z,67.14
2018-12-21T15:50:30.913Z,66.80
2018-12-21T15:52:59.810Z,66.12
2018-12-21T15:55:29.030Z,66.21
2018-12-21T15:57:57.888Z,67.60
2018-12-21T16:00:27.006Z,68.15
2018-12-21T16:02:56.895Z,67.85
2018-12-21T16:05:25.929Z,68.50
2018-12-21T16:07:54.805Z,67.53
2018-12-21T16:10:23.672Z,67.09
2018-12-21T16:12:52.574Z,67.39
2018-12-21T16:15:21.465Z,66.87
2018-12-21T16:17:50.344Z,66.41
2018-12-21T16:20:19.227Z,67.94
2018-12-21T16:22:48.129Z,67.64
2018-12-21T16:25:17.087Z,66.88
2018-12-21T16:27:46.021Z,67.69
2018-12-21T16:30:15.009Z,68.06
2018-12-21T16:32:43.921Z,69.19
2018-12-21T16:35:12.858Z,68.44
2018-12-21T16:37:41.681Z,69.00
2018-12-21T16:40:11.594Z,68.42
2018-12-21T16:42:40.481Z,68.09
2018-12-21T16:45:11.105Z,69.44
2018-12-21T16:47:39.921Z,68.87
2018-12-21T16:50:12.753Z,69.77
2018-12-21T16:52:41.613Z,69.20
2018-12-21T16:55:11.662Z,70.12
2018-12-21T16:57:40.535Z,71.03
2018-12-21T17:00:13.668Z,70.66
2018-12-21T17:02:42.596Z,70.95
2018-12-21T17:05:11.584Z,70.64
2018-12-21T17:07:40.496Z,70.90
2018-12-21T17:10:18.901Z,69.64
2018-12-21T17:12:47.948Z,69.30
2018-12-21T17:15:16.945Z,68.96
2018-12-21T17:17:45.877Z,69.80
2018-12-21T17:20:14.757Z,69.20
2018-12-21T17:22:43.596Z,69.35
2018-12-21T17:25:14.039Z,69.22
2018-12-21T17:27:43.529Z,68.39
2018-12-21T17:30:13.396Z,69.23
2018-12-21T17:32:42.453Z,69.13
2018-12-21T17:35:11.328Z,69.48
2018-12-21T17:37:40.615Z,69.58
2018-12-21T17:40:11.451Z,69.48
2018-12-21T17:42:40.206Z,70.21
2018-12-21T17:45:11.030Z,70.02
2018-12-21T17:47:39.859Z,70.48
2018-12-21T17:50:10.196Z,71.04
2018-12-21T17:52:39.076Z,71.46
2018-12-21T17:55:09.029Z,71.25
2018-12-21T17:57:38.931Z,70.97
2018-12-21T18:00:16.526Z,71.24
2018-12-21T18:02:47.755Z,72.02
2018-12-21T18:05:16.610Z,71.56
2018-12-21T18:07:45.433Z,71.19
2018-12-21T18:10:14.987Z,71.73
2018-12-21T18:12:43.953Z,71.76
2018-12-21T18:15:12.884Z,72.09
2018-12-21T18:17:41.710Z,72.01
2018-12-21T18:20:12.268Z,70.85
2018-12-21T18:22:41.760Z,71.19
2018-12-21T18:25:15.492Z,71.19
2018-12-21T18:27:46.830Z,72.10
2018-12-21T18:30:24.796Z,71.26
2018-12-21T18:32:53.726Z,72.08
2018-12-21T18:35:22.696Z,72.69
2018-12-21T18:37:55.969Z,72.35
2018-12-21T18:40:24.830Z,71.89
2018-12-21T18:42:53.670Z,72.40
2018-12-21T18:45:22.553Z,72.62
2018-12-21T18:47:51.456Z,72.29
2018-12-21T18:50:21.101Z,72.83
2018-12-21T18:52:49.944Z,73.23
2018-12-21T18:55:18.787Z,72.99
2018-12-21T18:57:47.737Z,72.32
2018-12-21T19:00:17.376Z,72.27
2018-12-21T19:02:46.276Z,72.67
2018-12-21T19:05:15.097Z,72.54
2018-12-21T19:07:43.977Z,71.83
2018-12-21T19:10:13.857Z,72.61
2018-12-21T19:12:42.753Z,72.62
2018-12-21T19:15:12.097Z,72.08
2018-12-21T19:17:41.124Z,75.54
2018-12-21T19:20:11.627Z,78.91
2018-12-21T19:22:40.743Z,80.14
2018-12-21T19:25:10.931Z,80.72
2018-12-21T19:27:39.850Z,81.29
2018-12-21T19:30:11.339Z,81.09
2018-12-21T19:32:42.353Z,80.61
2018-12-21T19:35:12.461Z,80.10
2018-12-21T19:37:41.531Z,80.61
2018-12-21T19:40:12.644Z,80.77
2018-12-21T19:42:42.713Z,79.90
2018-12-21T19:45:13.427Z,79.03
2018-12-21T19:47:42.401Z,79.00
2018-12-21T19:50:11.608Z,79.97
2018-12-21T19:52:40.688Z,80.07
2018-12-21T19:55:18.426Z,80.42
2018-12-21T19:57:47.245Z,79.35
2018-12-21T20:00:16.711Z,78.90
2018-12-21T20:02:46.996Z,80.03
2018-12-21T20:05:16.010Z,79.28
2018-12-21T20:07:44.821Z,79.45
2018-12-21T20:10:13.722Z,79.58
2018-12-21T20:12:42.608Z,79.08
2018-12-21T20:15:11.614Z,78.89
2018-12-21T20:17:40.439Z,77.67
2018-12-21T20:20:10.500Z,77.63
2018-12-21T20:22:39.328Z,78.14
2018-12-21T20:25:10.512Z,78.15
2018-12-21T20:27:40.344Z,77.86
2018-12-21T20:30:12.353Z,77.33
2018-12-21T20:32:41.261Z,77.67
2018-12-21T20:35:10.260Z,76.85
2018-12-21T20:37:39.268Z,76.72
2018-12-21T20:40:10.021Z,76.69
2018-12-21T20:42:39.040Z,76.50
2018-12-21T20:45:09.325Z,76.33
2018-12-21T20:47:38.254Z,77.04
2018-12-21T20:50:10.525Z,75.64
2018-12-21T20:52:39.404Z,75.50
2018-12-21T20:55:08.894Z,76.00
2018-12-21T20:57:38.309Z,74.73
2018-12-21T21:00:11.265Z,75.50
2018-12-21T21:02:40.149Z,75.30
2018-12-21T21:05:09.029Z,74.35
2018-12-21T21:07:37.871Z,74.79
2018-12-21T21:10:09.929Z,74.73
2018-12-21T21:12:38.813Z,74.46
2018-12-21T21:15:09.337Z,74.80
2018-12-21T21:17:38.320Z,74.66
2018-12-21T21:20:10.419Z,74.75
2018-12-21T21:22:39.449Z,74.15
2018-12-21T21:25:09.205Z,74.62
2018-12-21T21:27:38.128Z,75.25
2018-12-21T21:30:12.086Z,74.55
2018-12-21T21:32:41.195Z,74.71
2018-12-21T21:35:10.390Z,75.28
2018-12-21T21:37:39.345Z,75.36
2018-12-21T21:40:12.097Z,74.62
2018-12-21T21:42:40.917Z,74.83
2018-12-21T21:45:09.872Z,75.00
2018-12-21T21:47:39.680Z,75.36
2018-12-21T21:50:09.393Z,75.68
2018-12-21T21:52:38.332Z,74.62
2018-12-21T21:55:07.810Z,75.27
2018-12-21T21:57:39.606Z,74.96
2018-12-21T22:00:11.746Z,74.19
2018-12-21T22:02:40.812Z,74.48
2018-12-21T22:05:09.789Z,75.17
2018-12-21T22:07:38.676Z,74.95
2018-12-21T22:10:09.733Z,75.44
2018-12-21T22:12:38.673Z,75.37
2018-12-21T22:15:09.425Z,75.67
2018-12-21T22:17:38.337Z,75.50
2018-12-21T22:20:09.765Z,75.75
2018-12-21T22:22:38.676Z,76.28
2018-12-21T22:25:07.711Z,75.24
2018-12-21T22:27:36.688Z,75.96
2018-12-21T22:30:07.880Z,76.40
2018-12-21T22:32:36.977Z,75.92
2018-12-21T22:35:06.104Z,75.95
2018-12-21T22:37:36.068Z,76.38
2018-12-21T22:40:05.592Z,75.72
2018-12-21T22:42:34.426Z,76.33
2018-12-21T22:45:03.602Z,76.77
2018-12-21T22:47:32.593Z,76.16
2018-12-21T22:50:01.506Z,76.30
2018-12-21T22:52:30.460Z,75.91
2018-12-21T22:54:59.372Z,76.57
2018-12-21T22:57:28.225Z,75.85
2018-12-21T22:59:57.144Z,76.68
2018-12-21T23:02:26.091Z,75.83
2018-12-21T23:04:55.080Z,75.95
2018-12-21T23:07:23.904Z,76.04
2018-12-21T23:09:52.905Z,76.51
2018-12-21T23:12:21.805Z,76.34
2018-12-21T23:14:50.636Z,75.75
2018-12-21T23:17:19.572Z,75.13
2018-12-21T23:19:48.492Z,75.46
2018-12-21T23:22:17.369Z,74.97
2018-12-21T23:24:46.252Z,74.73
2018-12-21T23:27:15.141Z,75.85
2018-12-21T23:29:44.159Z,74.71
2018-12-21T23:32:13.214Z,75.52
2018-12-21T23:34:43.024Z,74.64
2018-12-21T23:37:11.928Z,75.25
2018-12-21T23:39:40.816Z,74.77
2018-12-21T23:42:09.809Z,75.44
2018-12-21T23:44:38.704Z,74.62
2018-12-21T23:47:07.645Z,75.34
2018-12-21T23:49:36.617Z,75.39
2018-12-21T23:52:05.585Z,75.10
2018-12-21T23:54:34.481Z,74.50
2018-12-21T23:57:03.597Z,74.48
2018-12-21T23:59:32.560Z,74.52
